createdAt,value
2018-02-11T00:00:27.929Z,41.42
2018-02-11T00:01:01.928Z,37.88
2018-02-11T00:01:35.827Z,39.03
2018-02-11T00:02:09.695Z,39.35
2018-02-11T00:02:43.591Z,38.30
2018-02-11T00:03:17.490Z,40.70
2018-02-11T00:03:51.392Z,38.92
2018-02-11T00:04:25.263Z,40.20
2018-02-11T00:04:59.290Z,37.70
2018-02-11T00:05:33.402Z,38.88
2018-02-11T00:06:07.604Z,37.85
2018-02-11T00:06:41.544Z,41.85
2018-02-11T00:07:15.450Z,40.58
2018-02-11T00:07:49.442Z,38.53
2018-02-11T00:08:23.395Z,37.13
2018-02-11T00:08:59.282Z,38.90
2018-02-11T00:09:33.197Z,38.25
2018-02-11T00:10:08.745Z,37.45
2018-02-11T00:10:42.698Z,38.97
2018-02-11T00:11:16.787Z,38.05
2018-02-11T00:11:50.962Z,37.47
2018-02-11T00:12:25.643Z,39.05
2018-02-11T00:13:00.224Z,39.30
2018-02-11T00:13:34.384Z,37.45
2018-02-11T00:14:08.316Z,40.35
2018-02-11T00:14:42.188Z,39.33
2018-02-11T00:15:16.030Z,38.45
2018-02-11T00:15:49.936Z,38.85
2018-02-11T00:16:23.935Z,38.80
2018-02-11T00:16:58.246Z,41.30
2018-02-11T00:17:33.201Z,37.78
2018-02-11T00:18:07.991Z,38.45
2018-02-11T00:18:42.264Z,40.00
2018-02-11T00:19:16.145Z,38.22
2018-02-11T00:19:50.088Z,36.55
2018-02-11T00:20:24.029Z,38.45
2018-02-11T00:20:59.280Z,36.47
2018-02-11T00:21:34.113Z,39.42
2018-02-11T00:22:08.104Z,40.22
2018-02-11T00:22:43.333Z,39.05
2018-02-11T00:23:17.318Z,37.63
2018-02-11T00:23:51.297Z,38.70
2018-02-11T00:24:25.212Z,39.28
2018-02-11T00:24:59.241Z,39.83
2018-02-11T00:25:33.268Z,39.67
2018-02-11T00:26:07.332Z,37.55
2018-02-11T00:26:41.829Z,38.60
2018-02-11T00:27:16.725Z,38.10
2018-02-11T00:27:50.871Z,38.67
2018-02-11T00:28:24.753Z,38.05
2018-02-11T00:28:58.752Z,38.70
2018-02-11T00:29:32.753Z,39.22
2018-02-11T00:30:07.533Z,38.25
2018-02-11T00:30:41.464Z,39.05
2018-02-11T00:31:15.320Z,40.63
2018-02-11T00:31:49.793Z,40.50
2018-02-11T00:32:24.342Z,39.83
2018-02-11T00:32:58.264Z,36.70
2018-02-11T00:33:32.216Z,38.72
2018-02-11T00:34:06.145Z,39.28
2018-02-11T00:34:40.017Z,36.58
2018-02-11T00:35:13.889Z,37.03
2018-02-11T00:35:50.032Z,39.70
2018-02-11T00:36:24.119Z,38.60
2018-02-11T00:36:58.834Z,39.08
2018-02-11T00:37:38.973Z,37.15
2018-02-11T00:38:13.024Z,38.15
2018-02-11T00:38:47.121Z,39.05
2018-02-11T00:39:20.988Z,38.78
2018-02-11T00:39:55.058Z,39.30
2018-02-11T00:40:29.175Z,39.30
2018-02-11T00:41:03.324Z,36.75
2018-02-11T00:41:37.180Z,35.45
2018-02-11T00:42:11.097Z,38.83
2018-02-11T00:42:45.031Z,38.30
2018-02-11T00:43:18.952Z,37.58
2018-02-11T00:43:53.543Z,37.92
2018-02-11T00:44:28.429Z,36.60
2018-02-11T00:45:02.368Z,36.95
2018-02-11T00:45:36.273Z,36.22
2018-02-11T00:46:11.689Z,38.20
2018-02-11T00:46:46.961Z,37.10
2018-02-11T00:47:20.858Z,40.10
2018-02-11T00:47:57.633Z,39.08
2018-02-11T00:48:31.654Z,38.05
2018-02-11T00:49:06.337Z,38.13
2018-02-11T00:49:40.402Z,38.95
2018-02-11T00:50:14.459Z,38.60
2018-02-11T00:50:48.536Z,37.30
2018-02-11T00:51:23.276Z,39.38
2018-02-11T00:51:58.326Z,38.95
2018-02-11T00:52:32.359Z,36.15
2018-02-11T00:53:06.587Z,39.70
2018-02-11T00:53:40.934Z,37.72
2018-02-11T00:54:15.001Z,37.30
2018-02-11T00:54:49.269Z,36.70
2018-02-11T00:55:23.161Z,35.85
2018-02-11T00:55:58.895Z,37.72
2018-02-11T00:56:32.867Z,36.85
2018-02-11T00:57:06.815Z,36.53
2018-02-11T00:57:40.672Z,36.03
2018-02-11T00:58:14.580Z,38.47
2018-02-11T00:58:49.142Z,35.83
2018-02-11T00:59:23.410Z,37.33
2018-02-11T00:59:57.906Z,38.42
2018-02-11T01:00:32.012Z,37.65
2018-02-11T01:01:06.843Z,38.83
2018-02-11T01:01:41.501Z,37.00
2018-02-11T01:02:16.781Z,38.83
2018-02-11T01:02:50.672Z,37.35
2018-02-11T01:03:25.385Z,38.65
2018-02-11T01:03:59.296Z,38.25
2018-02-11T01:04:33.379Z,37.28
2018-02-11T01:05:07.313Z,36.53
2018-02-11T01:05:41.201Z,37.30
2018-02-11T01:06:15.604Z,37.72
2018-02-11T01:06:49.719Z,37.38
2018-02-11T01:07:26.417Z,39.70
2018-02-11T01:08:01.210Z,36.75
2018-02-11T01:08:35.202Z,37.58
2018-02-11T01:09:09.224Z,36.75
2018-02-11T01:09:44.516Z,37.47
2018-02-11T01:10:19.016Z,40.53
2018-02-11T01:10:53.314Z,35.72
2018-02-11T01:11:28.200Z,35.42
2018-02-11T01:12:02.127Z,37.42
2018-02-11T01:12:35.992Z,38.10
2018-02-11T01:13:09.993Z,36.60
2018-02-11T01:13:43.888Z,36.78
2018-02-11T01:14:19.504Z,36.20
2018-02-11T01:14:54.731Z,37.47
2018-02-11T01:15:29.131Z,38.35
2018-02-11T01:16:03.092Z,36.38
2018-02-11T01:16:38.121Z,36.40
2018-02-11T01:17:12.462Z,36.50
2018-02-11T01:17:46.399Z,37.33
2018-02-11T01:18:21.009Z,39.55
2018-02-11T01:18:55.968Z,36.20
2018-02-11T01:19:29.853Z,38.45
2018-02-11T01:20:03.798Z,36.90
2018-02-11T01:20:37.717Z,35.50
2018-02-11T01:21:11.990Z,39.42
2018-02-11T01:21:46.958Z,38.55
2018-02-11T01:22:21.117Z,38.28
2018-02-11T01:22:56.452Z,37.40
2018-02-11T01:23:33.752Z,36.63
2018-02-11T01:24:07.925Z,37.58
2018-02-11T01:24:43.642Z,37.83
2018-02-11T01:25:17.817Z,35.70
2018-02-11T01:25:51.902Z,35.28
2018-02-11T01:26:26.245Z,34.80
2018-02-11T01:27:00.268Z,38.58
2018-02-11T01:27:35.728Z,39.20
2018-02-11T01:28:10.922Z,36.55
2018-02-11T01:28:45.480Z,38.42
2018-02-11T01:29:19.660Z,37.35
2018-02-11T01:29:53.576Z,36.63
2018-02-11T01:30:28.187Z,46.85
2018-02-11T01:31:03.150Z,48.30
2018-02-11T01:31:41.265Z,63.00
2018-02-11T01:32:15.798Z,39.80
2018-02-11T01:32:49.959Z,42.15
2018-02-11T01:33:24.249Z,40.80
2018-02-11T01:33:58.550Z,39.40
2018-02-11T01:34:33.369Z,47.92
2018-02-11T01:35:07.260Z,40.97
2018-02-11T01:35:41.285Z,39.70
2018-02-11T01:36:15.206Z,40.97
2018-02-11T01:36:50.289Z,41.17
2018-02-11T01:37:24.840Z,38.83
2018-02-11T01:37:59.811Z,38.28
2018-02-11T01:38:34.184Z,36.50
2018-02-11T01:39:08.697Z,36.63
2018-02-11T01:39:43.328Z,36.15
2018-02-11T01:40:22.050Z,38.70
2018-02-11T01:40:57.137Z,38.17
2018-02-11T01:41:32.728Z,36.92
2018-02-11T01:42:07.683Z,38.53
2018-02-11T01:42:41.562Z,35.78
2018-02-11T01:43:16.325Z,38.85
2018-02-11T01:43:50.274Z,44.08
2018-02-11T01:44:24.673Z,42.05
2018-02-11T01:44:58.560Z,37.78
2018-02-11T01:45:32.540Z,38.60
2018-02-11T01:46:06.519Z,38.13
2018-02-11T01:46:40.423Z,37.20
2018-02-11T01:47:14.300Z,37.30
2018-02-11T01:47:48.441Z,36.35
2018-02-11T01:48:23.348Z,34.90
2018-02-11T01:48:57.217Z,38.63
2018-02-11T01:49:32.090Z,37.42
2018-02-11T01:50:11.796Z,39.50
2018-02-11T01:50:46.175Z,37.13
2018-02-11T01:51:20.134Z,39.00
2018-02-11T01:51:54.409Z,37.08
2018-02-11T01:52:28.934Z,37.42
2018-02-11T01:53:03.081Z,35.70
2018-02-11T01:53:39.938Z,38.50
2018-02-11T01:54:14.515Z,37.58
2018-02-11T01:54:48.563Z,37.83
2018-02-11T01:55:22.903Z,40.35
2018-02-11T01:55:56.834Z,35.80
2018-02-11T01:56:31.369Z,40.60
2018-02-11T01:57:05.501Z,39.53
2018-02-11T01:57:41.673Z,37.80
2018-02-11T01:58:15.585Z,37.65
2018-02-11T01:58:49.900Z,37.28
2018-02-11T01:59:24.855Z,38.60
2018-02-11T01:59:59.654Z,37.40
2018-02-11T02:00:34.040Z,36.80
2018-02-11T02:01:08.163Z,37.97
2018-02-11T02:01:43.445Z,37.25
2018-02-11T02:02:17.361Z,35.88
2018-02-11T02:02:51.275Z,37.78
2018-02-11T02:03:25.335Z,36.05
2018-02-11T02:03:59.213Z,36.67
2018-02-11T02:04:33.268Z,38.58
2018-02-11T02:05:07.467Z,37.80
2018-02-11T02:05:41.522Z,36.72
2018-02-11T02:06:15.490Z,35.45
2018-02-11T02:06:49.822Z,36.30
2018-02-11T02:07:25.972Z,36.25
2018-02-11T02:07:59.877Z,34.50
2018-02-11T02:08:35.012Z,37.67
2018-02-11T02:09:10.029Z,35.45
2018-02-11T02:09:44.258Z,36.00
2018-02-11T02:10:18.627Z,34.58
2018-02-11T02:10:52.674Z,37.17
2018-02-11T02:11:27.643Z,37.17
2018-02-11T02:12:01.580Z,38.85
2018-02-11T02:12:35.767Z,35.80
2018-02-11T02:13:09.784Z,35.05
2018-02-11T02:13:44.499Z,35.42
2018-02-11T02:14:18.724Z,36.80
2018-02-11T02:14:54.022Z,35.85
2018-02-11T02:15:28.310Z,35.78
2018-02-11T02:16:02.715Z,36.30
2018-02-11T02:16:36.645Z,35.22
2018-02-11T02:17:11.484Z,35.47
2018-02-11T02:17:47.181Z,36.17
2018-02-11T02:18:22.232Z,36.10
2018-02-11T02:18:56.212Z,35.83
2018-02-11T02:19:30.080Z,34.78
2018-02-11T02:20:04.037Z,36.25
2018-02-11T02:20:38.070Z,34.33
2018-02-11T02:21:12.699Z,36.28
2018-02-11T02:21:46.551Z,37.20
2018-02-11T02:22:20.437Z,37.45
2018-02-11T02:22:54.390Z,34.55
2018-02-11T02:23:29.285Z,35.53
2018-02-11T02:24:03.556Z,36.63
2018-02-11T02:24:38.787Z,35.75
2018-02-11T02:25:13.334Z,35.47
2018-02-11T02:25:47.322Z,36.35
2018-02-11T02:26:21.642Z,34.33
2018-02-11T02:26:55.807Z,35.33
2018-02-11T02:27:31.559Z,37.05
2018-02-11T02:28:06.210Z,36.15
2018-02-11T02:28:40.858Z,37.90
2018-02-11T02:29:15.609Z,36.90
2018-02-11T02:29:50.148Z,37.33
2018-02-11T02:30:25.556Z,36.70
2018-02-11T02:30:59.745Z,36.20
2018-02-11T02:31:34.208Z,36.67
2018-02-11T02:32:08.957Z,35.35
2018-02-11T02:32:44.320Z,36.53
2018-02-11T02:33:18.435Z,37.13
2018-02-11T02:33:53.098Z,35.58
2018-02-11T02:34:27.075Z,36.92
2018-02-11T02:35:01.527Z,37.45
2018-02-11T02:35:35.434Z,35.97
2018-02-11T02:36:09.340Z,38.25
2018-02-11T02:36:43.215Z,36.30
2018-02-11T02:37:17.232Z,36.72
2018-02-11T02:37:51.104Z,38.30
2018-02-11T02:38:25.187Z,40.03
2018-02-11T02:38:59.077Z,36.00
2018-02-11T02:39:33.020Z,33.38
2018-02-11T02:40:06.948Z,36.47
2018-02-11T02:40:40.988Z,37.28
2018-02-11T02:41:14.881Z,37.15
2018-02-11T02:41:49.860Z,34.67
2018-02-11T02:42:23.742Z,36.55
2018-02-11T02:42:57.774Z,35.65
2018-02-11T02:43:32.608Z,34.65
2018-02-11T02:44:06.588Z,34.47
2018-02-11T02:44:42.311Z,36.35
2018-02-11T02:45:17.529Z,35.00
2018-02-11T02:45:53.415Z,34.10
2018-02-11T02:46:27.587Z,35.75
2018-02-11T02:47:01.476Z,35.78
2018-02-11T02:47:35.333Z,34.33
2018-02-11T02:48:09.265Z,35.10
2018-02-11T02:48:43.276Z,36.78
2018-02-11T02:49:17.217Z,35.63
2018-02-11T02:49:51.061Z,36.17
2018-02-11T02:50:25.053Z,36.72
2018-02-11T02:50:58.957Z,33.45
2018-02-11T02:51:32.838Z,35.25
2018-02-11T02:52:06.705Z,35.95
2018-02-11T02:52:40.641Z,34.15
2018-02-11T02:53:14.704Z,35.50
2018-02-11T02:53:48.555Z,35.17
2018-02-11T02:54:22.552Z,35.00
2018-02-11T02:54:56.447Z,37.00
2018-02-11T02:55:30.392Z,37.13
2018-02-11T02:56:04.572Z,35.15
2018-02-11T02:56:38.465Z,35.38
2018-02-11T02:57:12.328Z,34.17
2018-02-11T02:57:46.205Z,34.95
2018-02-11T02:58:20.097Z,32.70
2018-02-11T02:58:53.989Z,35.22
2018-02-11T02:59:27.883Z,36.75
2018-02-11T03:00:01.832Z,36.38
2018-02-11T03:00:36.497Z,37.08
2018-02-11T03:01:10.440Z,35.60
2018-02-11T03:01:44.356Z,33.90
2018-02-11T03:02:18.264Z,36.25
2018-02-11T03:02:52.301Z,35.90
2018-02-11T03:03:26.174Z,35.97
2018-02-11T03:04:00.173Z,35.28
2018-02-11T03:04:34.033Z,35.60
2018-02-11T03:05:07.905Z,34.65
2018-02-11T03:05:41.764Z,33.88
2018-02-11T03:06:15.734Z,34.88
2018-02-11T03:06:49.668Z,34.33
2018-02-11T03:07:23.555Z,34.45
2018-02-11T03:07:57.407Z,32.80
2018-02-11T03:08:31.284Z,35.30
2018-02-11T03:09:05.192Z,34.20
2018-02-11T03:09:39.073Z,34.72
2018-02-11T03:10:13.064Z,37.10
2018-02-11T03:10:46.957Z,36.03
2018-02-11T03:11:20.859Z,35.17
2018-02-11T03:11:54.771Z,35.42
2018-02-11T03:12:28.653Z,35.40
2018-02-11T03:13:02.633Z,34.15
2018-02-11T03:13:36.493Z,33.63
2018-02-11T03:14:10.476Z,36.05
2018-02-11T03:14:44.449Z,35.58
2018-02-11T03:15:18.382Z,31.90
2018-02-11T03:15:52.287Z,35.20
2018-02-11T03:16:26.168Z,36.55
2018-02-11T03:17:00.075Z,34.97
2018-02-11T03:17:34.094Z,35.35
2018-02-11T03:18:08.013Z,32.72
2018-02-11T03:18:41.948Z,35.65
2018-02-11T03:19:16.551Z,34.13
2018-02-11T03:19:50.446Z,33.58
2018-02-11T03:20:24.363Z,35.58
2018-02-11T03:20:58.384Z,33.70
2018-02-11T03:21:32.341Z,34.58
2018-02-11T03:22:06.264Z,34.50
2018-02-11T03:22:40.155Z,32.75
2018-02-11T03:23:14.120Z,34.25
2018-02-11T03:23:48.039Z,34.67
2018-02-11T03:24:22.021Z,35.70
2018-02-11T03:24:55.892Z,36.45
2018-02-11T03:25:29.808Z,35.20
2018-02-11T03:26:03.928Z,35.70
2018-02-11T03:26:37.830Z,34.33
2018-02-11T03:27:11.745Z,34.25
2018-02-11T03:27:45.652Z,32.70
2018-02-11T03:28:19.620Z,36.75
2018-02-11T03:28:53.480Z,34.67
2018-02-11T03:29:27.434Z,33.40
2018-02-11T03:30:01.659Z,35.47
2018-02-11T03:30:35.577Z,33.90
2018-02-11T03:31:09.500Z,34.10
2018-02-11T03:31:43.501Z,32.35
2018-02-11T03:32:17.392Z,34.95
2018-02-11T03:32:51.309Z,32.50
2018-02-11T03:33:25.203Z,34.63
2018-02-11T03:33:59.262Z,34.90
2018-02-11T03:34:33.227Z,34.38
2018-02-11T03:35:07.130Z,36.05
2018-02-11T03:35:41.053Z,35.75
2018-02-11T03:36:15.041Z,36.15
2018-02-11T03:36:49.129Z,33.17
2018-02-11T03:37:23.018Z,34.92
2018-02-11T03:37:57.006Z,35.05
2018-02-11T03:38:30.916Z,36.15
2018-02-11T03:39:04.793Z,33.13
2018-02-11T03:39:38.926Z,38.03
2018-02-11T03:40:12.826Z,35.33
2018-02-11T03:40:46.870Z,32.70
2018-02-11T03:41:20.793Z,35.13
2018-02-11T03:41:54.962Z,32.88
2018-02-11T03:42:29.039Z,33.70
2018-02-11T03:43:02.976Z,35.58
2018-02-11T03:43:36.841Z,34.03
2018-02-11T03:44:10.726Z,34.80
2018-02-11T03:44:44.673Z,34.08
2018-02-11T03:45:18.660Z,35.70
2018-02-11T03:45:52.581Z,33.35
2018-02-11T03:46:26.500Z,34.55
2018-02-11T03:47:00.473Z,33.28
2018-02-11T03:47:34.540Z,34.03
2018-02-11T03:48:08.391Z,34.90
2018-02-11T03:48:42.264Z,34.55
2018-02-11T03:49:16.149Z,33.92
2018-02-11T03:49:50.036Z,35.53
2018-02-11T03:50:23.914Z,35.38
2018-02-11T03:50:58.127Z,35.47
2018-02-11T03:51:32.216Z,35.08
2018-02-11T03:52:06.135Z,36.03
2018-02-11T03:52:40.120Z,33.60
2018-02-11T03:53:13.995Z,36.90
2018-02-11T03:53:47.928Z,34.08
2018-02-11T03:54:21.802Z,33.58
2018-02-11T03:54:55.716Z,34.70
2018-02-11T03:55:29.754Z,36.25
2018-02-11T03:56:03.624Z,34.63
2018-02-11T03:56:37.489Z,37.85
2018-02-11T03:57:11.402Z,36.75
2018-02-11T03:57:45.279Z,34.38
2018-02-11T03:58:19.172Z,35.22
2018-02-11T03:58:53.153Z,35.08
2018-02-11T03:59:27.022Z,35.47
2018-02-11T04:00:00.889Z,34.03
2018-02-11T04:00:35.062Z,38.65
2018-02-11T04:01:08.937Z,35.70
2018-02-11T04:01:42.817Z,36.13
2018-02-11T04:02:16.713Z,34.03
2018-02-11T04:02:50.619Z,37.33
2018-02-11T04:03:24.484Z,34.55
2018-02-11T04:03:58.336Z,34.38
2018-02-11T04:04:32.275Z,37.00
2018-02-11T04:05:06.173Z,35.97
2018-02-11T04:05:40.434Z,36.75
2018-02-11T04:06:14.308Z,36.00
2018-02-11T04:06:48.171Z,33.50
2018-02-11T04:07:22.052Z,35.88
2018-02-11T04:07:55.925Z,33.70
2018-02-11T04:08:29.893Z,36.80
2018-02-11T04:09:03.784Z,34.97
2018-02-11T04:09:37.681Z,35.50
2018-02-11T04:10:11.605Z,34.13
2018-02-11T04:10:45.497Z,34.22
2018-02-11T04:11:19.408Z,36.28
2018-02-11T04:11:53.321Z,35.38
2018-02-11T04:12:27.249Z,37.65
2018-02-11T04:13:01.126Z,35.05
2018-02-11T04:13:35.230Z,36.05
2018-02-11T04:14:09.103Z,36.70
2018-02-11T04:14:43.010Z,36.30
2018-02-11T04:15:16.891Z,35.30
2018-02-11T04:15:50.784Z,36.58
2018-02-11T04:16:24.833Z,36.50
2018-02-11T04:16:58.772Z,34.10
2018-02-11T04:17:32.677Z,35.33
2018-02-11T04:18:06.570Z,34.22
2018-02-11T04:18:40.531Z,36.72
2018-02-11T04:19:14.452Z,35.13
2018-02-11T04:19:48.327Z,36.88
2018-02-11T04:20:22.171Z,34.83
2018-02-11T04:20:56.073Z,36.75
2018-02-11T04:21:29.943Z,34.25
2018-02-11T04:22:03.986Z,34.50
2018-02-11T04:22:37.935Z,36.72
2018-02-11T04:23:11.845Z,36.40
2018-02-11T04:23:46.098Z,36.45
2018-02-11T04:24:19.943Z,33.65
2018-02-11T04:24:53.794Z,34.97
2018-02-11T04:25:27.670Z,33.55
2018-02-11T04:26:01.578Z,35.50
2018-02-11T04:26:35.484Z,34.83
2018-02-11T04:27:09.349Z,35.67
2018-02-11T04:27:43.345Z,35.47
2018-02-11T04:28:17.339Z,34.90
2018-02-11T04:28:51.241Z,34.35
2018-02-11T04:29:25.104Z,34.25
2018-02-11T04:29:59.072Z,36.33
2018-02-11T04:30:32.939Z,37.15
2018-02-11T04:31:06.886Z,35.08
2018-02-11T04:31:40.797Z,35.47
2018-02-11T04:32:14.682Z,36.55
2018-02-11T04:32:48.807Z,34.22
2018-02-11T04:33:22.668Z,35.50
2018-02-11T04:33:56.641Z,36.00
2018-02-11T04:34:30.580Z,35.22
2018-02-11T04:35:04.739Z,34.60
2018-02-11T04:35:38.638Z,35.95
2018-02-11T04:36:12.627Z,35.35
2018-02-11T04:36:46.524Z,37.10
2018-02-11T04:37:20.514Z,33.95
2018-02-11T04:37:54.424Z,33.28
2018-02-11T04:38:28.289Z,34.20
2018-02-11T04:39:02.214Z,33.60
2018-02-11T04:39:36.305Z,36.33
2018-02-11T04:40:10.170Z,32.85
2018-02-11T04:40:44.080Z,36.47
2018-02-11T04:41:18.064Z,32.50
2018-02-11T04:41:51.984Z,34.78
2018-02-11T04:42:26.184Z,34.55
2018-02-11T04:43:00.270Z,35.05
2018-02-11T04:43:34.161Z,35.40
2018-02-11T04:44:08.185Z,37.08
2018-02-11T04:44:42.079Z,35.25
2018-02-11T04:45:16.038Z,35.63
2018-02-11T04:45:49.930Z,34.75
2018-02-11T04:46:23.855Z,34.55
2018-02-11T04:46:57.761Z,34.83
2018-02-11T04:47:31.660Z,33.72
2018-02-11T04:48:05.558Z,33.72
2018-02-11T04:48:39.789Z,34.47
2018-02-11T04:49:13.693Z,33.85
2018-02-11T04:49:47.810Z,36.40
2018-02-11T04:50:21.734Z,34.45
2018-02-11T04:50:55.593Z,34.83
2018-02-11T04:51:29.448Z,35.47
2018-02-11T04:52:03.572Z,36.55
2018-02-11T04:52:37.520Z,35.40
2018-02-11T04:53:11.444Z,35.22
2018-02-11T04:53:45.425Z,34.15
2018-02-11T04:54:19.308Z,34.50
2018-02-11T04:54:53.170Z,34.50
2018-02-11T04:55:27.320Z,35.15
2018-02-11T04:56:01.173Z,35.70
2018-02-11T04:56:35.316Z,34.80
2018-02-11T04:57:09.205Z,36.53
2018-02-11T04:57:43.147Z,33.88
2018-02-11T04:58:17.133Z,34.60
2018-02-11T04:58:51.302Z,35.13
2018-02-11T04:59:25.345Z,36.53
2018-02-11T04:59:59.217Z,35.25
2018-02-11T05:00:33.083Z,33.80
2018-02-11T05:01:07.004Z,34.17
2018-02-11T05:01:40.914Z,35.75
2018-02-11T05:02:14.998Z,33.60
2018-02-11T05:02:48.967Z,34.08
2018-02-11T05:03:23.034Z,32.25
2018-02-11T05:03:57.063Z,34.78
2018-02-11T05:04:30.944Z,36.67
2018-02-11T05:05:04.813Z,36.78
2018-02-11T05:05:38.948Z,35.30
2018-02-11T05:06:12.901Z,36.20
2018-02-11T05:06:46.761Z,35.00
2018-02-11T05:07:20.621Z,35.40
2018-02-11T05:07:54.740Z,35.30
2018-02-11T05:08:28.785Z,37.30
2018-02-11T05:09:02.731Z,33.38
2018-02-11T05:09:36.627Z,34.40
2018-02-11T05:10:10.569Z,34.55
2018-02-11T05:10:44.556Z,34.08
2018-02-11T05:11:18.545Z,33.00
2018-02-11T05:11:52.425Z,34.85
2018-02-11T05:12:26.303Z,35.10
2018-02-11T05:13:00.316Z,32.47
2018-02-11T05:13:34.345Z,33.88
2018-02-11T05:14:08.220Z,35.75
2018-02-11T05:14:42.091Z,36.35
2018-02-11T05:15:16.080Z,35.70
2018-02-11T05:15:50.141Z,33.08
2018-02-11T05:16:24.116Z,35.22
2018-02-11T05:16:58.339Z,34.22
2018-02-11T05:17:32.590Z,34.03
2018-02-11T05:18:06.503Z,35.05
2018-02-11T05:18:40.372Z,33.97
2018-02-11T05:19:14.229Z,35.22
2018-02-11T05:19:48.370Z,34.03
2018-02-11T05:20:22.224Z,34.70
2018-02-11T05:20:56.220Z,35.13
2018-02-11T05:21:30.132Z,34.67
2018-02-11T05:22:04.022Z,32.88
2018-02-11T05:22:37.973Z,33.83
2018-02-11T05:23:11.974Z,35.60
2018-02-11T05:23:45.884Z,33.08
2018-02-11T05:24:19.770Z,33.75
2018-02-11T05:24:53.712Z,35.22
2018-02-11T05:25:27.687Z,34.47
2018-02-11T05:26:01.565Z,32.60
2018-02-11T05:26:35.488Z,34.25
2018-02-11T05:27:09.528Z,35.50
2018-02-11T05:27:43.419Z,34.08
2018-02-11T05:28:17.615Z,34.45
2018-02-11T05:28:51.602Z,33.50
2018-02-11T05:29:25.721Z,32.90
2018-02-11T05:29:59.597Z,34.58
2018-02-11T05:30:33.486Z,33.83
2018-02-11T05:31:07.348Z,33.00
2018-02-11T05:31:41.316Z,34.65
2018-02-11T05:32:15.275Z,34.35
2018-02-11T05:32:49.431Z,33.42
2018-02-11T05:33:23.373Z,33.45
2018-02-11T05:33:57.502Z,33.00
2018-02-11T05:34:31.536Z,34.75
2018-02-11T05:35:05.426Z,33.05
2018-02-11T05:35:39.361Z,33.83
2018-02-11T05:36:13.232Z,33.45
2018-02-11T05:36:47.375Z,34.80
2018-02-11T05:37:21.292Z,32.40
2018-02-11T05:37:55.149Z,32.03
2018-02-11T05:38:29.004Z,32.55
2018-02-11T05:39:02.859Z,31.95
2018-02-11T05:39:36.775Z,34.13
2018-02-11T05:40:10.639Z,34.22
2018-02-11T05:40:44.606Z,33.58
2018-02-11T05:41:18.541Z,32.85
2018-02-11T05:41:52.406Z,32.38
2018-02-11T05:42:26.399Z,33.80
2018-02-11T05:43:00.256Z,35.63
2018-02-11T05:43:34.121Z,34.00
2018-02-11T05:44:08.070Z,34.28
2018-02-11T05:44:41.931Z,34.95
2018-02-11T05:45:16.014Z,32.63
2018-02-11T05:45:50.225Z,30.80
2018-02-11T05:46:24.276Z,33.00
2018-02-11T05:46:58.258Z,33.10
2018-02-11T05:47:32.318Z,33.25
2018-02-11T05:48:06.249Z,32.22
2018-02-11T05:48:40.309Z,32.10
2018-02-11T05:49:14.253Z,33.45
2018-02-11T05:49:48.207Z,31.37
2018-02-11T05:50:22.111Z,32.90
2018-02-11T05:50:56.176Z,33.70
2018-02-11T05:51:30.175Z,33.90
2018-02-11T05:52:04.180Z,32.90
2018-02-11T05:52:38.069Z,31.98
2018-02-11T05:53:11.977Z,33.10
2018-02-11T05:53:45.884Z,32.92
2018-02-11T05:54:19.879Z,32.55
2018-02-11T05:54:53.749Z,32.78
2018-02-11T05:55:27.615Z,30.50
2018-02-11T05:56:01.873Z,33.00
2018-02-11T05:56:35.845Z,32.10
2018-02-11T05:57:09.741Z,32.72
2018-02-11T05:57:43.685Z,32.50
2018-02-11T05:58:17.708Z,33.67
2018-02-11T05:58:51.691Z,30.35
2018-02-11T05:59:25.668Z,31.92
2018-02-11T05:59:59.577Z,34.47
2018-02-11T06:00:33.444Z,31.90
2018-02-11T06:01:07.453Z,33.28
2018-02-11T06:01:41.404Z,32.45
2018-02-11T06:02:15.248Z,30.12
2018-02-11T06:02:49.112Z,30.98
2018-02-11T06:03:22.979Z,30.70
2018-02-11T06:03:56.973Z,33.33
2018-02-11T06:04:30.929Z,30.02
2018-02-11T06:05:05.118Z,32.28
2018-02-11T06:05:39.029Z,32.10
2018-02-11T06:06:13.244Z,31.42
2018-02-11T06:06:47.247Z,32.72
2018-02-11T06:07:21.280Z,32.45
2018-02-11T06:07:55.153Z,31.40
2018-02-11T06:08:29.244Z,30.90
2018-02-11T06:09:03.411Z,30.60
2018-02-11T06:09:37.287Z,30.75
2018-02-11T06:10:11.437Z,31.58
2018-02-11T06:10:45.300Z,29.85
2018-02-11T06:11:19.154Z,30.20
2018-02-11T06:11:53.046Z,31.10
2018-02-11T06:12:26.943Z,30.70
2018-02-11T06:13:00.809Z,33.03
2018-02-11T06:13:34.680Z,30.92
2018-02-11T06:14:08.677Z,30.98
2018-02-11T06:14:42.556Z,30.48
2018-02-11T06:15:16.424Z,30.62
2018-02-11T06:15:50.381Z,30.02
2018-02-11T06:16:24.254Z,31.75
2018-02-11T06:16:58.152Z,33.20
2018-02-11T06:17:32.212Z,31.50
2018-02-11T06:18:06.358Z,31.87
2018-02-11T06:18:40.200Z,30.15
2018-02-11T06:19:14.054Z,34.60
2018-02-11T06:19:48.241Z,31.40
2018-02-11T06:20:22.272Z,31.52
2018-02-11T06:20:56.336Z,32.45
2018-02-11T06:21:30.225Z,31.98
2018-02-11T06:22:04.372Z,30.70
2018-02-11T06:22:38.476Z,31.27
2018-02-11T06:23:12.389Z,30.30
2018-02-11T06:23:46.260Z,30.95
2018-02-11T06:24:20.239Z,31.45
2018-02-11T06:24:54.126Z,33.10
2018-02-11T06:25:28.269Z,28.38
2018-02-11T06:26:02.164Z,29.80
2018-02-11T06:26:42.055Z,29.42
2018-02-11T06:27:15.959Z,29.42
2018-02-11T06:27:49.892Z,29.42
2018-02-11T06:28:23.777Z,29.95
2018-02-11T06:28:57.668Z,31.30
2018-02-11T06:29:31.664Z,31.60
2018-02-11T06:30:05.548Z,30.80
2018-02-11T06:30:39.446Z,31.27
2018-02-11T06:31:13.310Z,29.50
2018-02-11T06:31:47.308Z,31.50
2018-02-11T06:32:21.233Z,29.60
2018-02-11T06:32:55.236Z,33.42
2018-02-11T06:33:29.088Z,31.48
2018-02-11T06:34:03.181Z,31.83
2018-02-11T06:34:37.076Z,31.77
2018-02-11T06:35:10.964Z,29.45
2018-02-11T06:35:44.881Z,30.08
2018-02-11T06:36:18.926Z,32.67
2018-02-11T06:36:52.803Z,31.30
2018-02-11T06:37:26.706Z,30.58
2018-02-11T06:38:00.615Z,29.20
2018-02-11T06:38:34.520Z,31.85
2018-02-11T06:39:08.565Z,29.10
2018-02-11T06:39:42.448Z,30.75
2018-02-11T06:40:16.327Z,31.15
2018-02-11T06:40:50.198Z,31.48
2018-02-11T06:41:24.094Z,31.50
2018-02-11T06:41:57.981Z,31.95
2018-02-11T06:42:31.863Z,32.85
2018-02-11T06:43:05.732Z,31.20
2018-02-11T06:43:39.855Z,30.95
2018-02-11T06:44:13.754Z,28.75
2018-02-11T06:44:47.611Z,28.67
2018-02-11T06:45:21.632Z,30.70
2018-02-11T06:45:55.525Z,29.05
2018-02-11T06:46:29.491Z,29.37
2018-02-11T06:47:03.353Z,28.15
2018-02-11T06:47:37.236Z,28.83
2018-02-11T06:48:11.170Z,31.27
2018-02-11T06:48:45.222Z,30.75
2018-02-11T06:49:19.121Z,28.67
2018-02-11T06:49:53.006Z,28.30
2018-02-11T06:50:26.887Z,28.77
2018-02-11T06:51:00.777Z,28.70
2018-02-11T06:51:34.911Z,29.50
2018-02-11T06:52:08.769Z,28.58
2018-02-11T06:52:42.788Z,28.73
2018-02-11T06:53:16.761Z,28.12
2018-02-11T06:53:50.975Z,27.60
2018-02-11T06:54:24.832Z,29.05
2018-02-11T06:54:58.756Z,27.58
2018-02-11T06:55:32.861Z,28.70
2018-02-11T06:56:06.793Z,28.50
2018-02-11T06:56:40.649Z,28.73
2018-02-11T06:57:14.541Z,26.58
2018-02-11T06:57:48.556Z,27.67
2018-02-11T06:58:22.425Z,26.62
2018-02-11T06:58:56.285Z,27.87
2018-02-11T06:59:30.194Z,29.87
2018-02-11T07:00:04.103Z,25.90
2018-02-11T07:00:38.144Z,27.90
2018-02-11T07:01:12.165Z,26.50
2018-02-11T07:01:46.072Z,27.52
2018-02-11T07:02:20.004Z,26.37
2018-02-11T07:02:53.856Z,27.35
2018-02-11T07:03:27.785Z,26.30
2018-02-11T07:04:01.880Z,27.02
2018-02-11T07:04:35.949Z,27.73
2018-02-11T07:05:10.089Z,25.17
2018-02-11T07:05:44.025Z,26.80
2018-02-11T07:06:17.897Z,24.90
2018-02-11T07:06:51.789Z,24.63
2018-02-11T07:07:25.669Z,27.40
2018-02-11T07:07:59.593Z,25.90
2018-02-11T07:08:33.520Z,24.50
2018-02-11T07:09:07.541Z,24.85
2018-02-11T07:09:42.168Z,24.42
2018-02-11T07:10:16.061Z,26.02
2018-02-11T07:10:50.108Z,25.85
2018-02-11T07:11:23.970Z,25.60
2018-02-11T07:11:57.838Z,24.85
2018-02-11T07:12:31.716Z,24.73
2018-02-11T07:13:05.564Z,25.48
2018-02-11T07:13:39.522Z,25.42
2018-02-11T07:14:13.408Z,23.85
2018-02-11T07:14:47.330Z,25.67
2018-02-11T07:15:21.254Z,24.95
2018-02-11T07:15:55.202Z,25.77
2018-02-11T07:16:29.132Z,24.60
2018-02-11T07:17:03.248Z,24.90
2018-02-11T07:17:37.123Z,23.80
2018-02-11T07:18:10.994Z,24.85
2018-02-11T07:18:45.109Z,23.35
2018-02-11T07:19:19.096Z,24.95
2018-02-11T07:19:53.001Z,26.05